createdAt,value
2024-02-16T00:04:52.405Z,58.96
2024-02-16T00:09:55.098Z,57.21
2024-02-16T00:14:57.713Z,57.81
2024-02-16T00:20:00.828Z,57.76
2024-02-16T00:25:04.915Z,57.38
2024-02-16T00:30:08.308Z,57.48
2024-02-16T00:35:12.902Z,57.78
2024-02-16T00:40:15.731Z,56.96
2024-02-16T00:45:18.545Z,56.82
2024-02-16T00:50:21.312Z,57.50
2024-02-16T00:55:23.874Z,56.90
2024-02-16T01:00:27.327Z,56.59
2024-02-16T01:05:29.874Z,56.64
2024-02-16T01:10:32.471Z,57.08
2024-02-16T01:15:35.104Z,56.27
2024-02-16T01:20:37.735Z,57.82
2024-02-16T01:25:40.230Z,56.73
2024-02-16T01:30:42.900Z,57.61
2024-02-16T01:35:47.385Z,56.75
2024-02-16T01:40:50.057Z,56.29
2024-02-16T01:45:52.572Z,56.44
2024-02-16T01:50:55.794Z,55.75
2024-02-16T01:55:58.390Z,55.71
2024-02-16T02:01:00.993Z,56.40
2024-02-16T02:06:03.840Z,56.04
2024-02-16T02:11:07.375Z,56.26
2024-02-16T02:16:12.064Z,55.69
2024-02-16T02:21:15.991Z,56.36
2024-02-16T02:26:18.647Z,56.08
2024-02-16T02:31:21.248Z,56.35
2024-02-16T02:36:23.884Z,55.00
2024-02-16T02:41:26.446Z,55.93
2024-02-16T02:46:29.262Z,55.65
2024-02-16T02:51:32.152Z,55.96
2024-02-16T02:56:34.746Z,55.47
2024-02-16T03:01:38.316Z,55.39
2024-02-16T03:06:40.978Z,55.27
2024-02-16T03:11:44.175Z,56.24
2024-02-16T03:16:46.848Z,54.92
2024-02-16T03:21:49.731Z,55.04
2024-02-16T03:26:52.354Z,55.35
2024-02-16T03:31:54.930Z,55.75
2024-02-16T03:36:57.429Z,56.14
2024-02-16T03:42:00.104Z,56.31
2024-02-16T03:47:02.633Z,55.75
2024-02-16T03:52:11.936Z,56.17
2024-02-16T03:57:14.497Z,55.47
2024-02-16T04:02:17.204Z,55.42
2024-02-16T04:07:19.880Z,55.38
2024-02-16T04:12:35.614Z,55.43
2024-02-16T04:17:38.158Z,55.51
2024-02-16T04:22:40.760Z,55.36
2024-02-16T04:27:43.349Z,55.07
2024-02-16T04:32:45.982Z,53.82
2024-02-16T04:37:48.590Z,52.42
2024-02-16T04:42:51.185Z,51.13
2024-02-16T04:47:54.250Z,50.13
2024-02-16T04:52:56.886Z,48.08
2024-02-16T04:58:05.960Z,47.19
2024-02-16T05:03:08.943Z,46.18
2024-02-16T05:08:11.604Z,46.03
2024-02-16T05:13:15.721Z,43.71
2024-02-16T05:18:19.603Z,42.44
2024-02-16T05:23:22.186Z,41.58
2024-02-16T05:28:24.664Z,42.47
2024-02-16T05:33:28.803Z,40.27
2024-02-16T05:38:36.504Z,39.68
2024-02-16T05:43:42.062Z,38.12
2024-02-16T05:48:45.615Z,39.40
2024-02-16T05:53:48.831Z,37.84
2024-02-16T05:58:51.689Z,36.54
2024-02-16T06:03:54.375Z,36.06
2024-02-16T06:08:56.947Z,35.40
2024-02-16T06:13:59.424Z,35.52
2024-02-16T06:19:02.475Z,34.51
2024-02-16T06:24:05.505Z,34.29
2024-02-16T06:29:08.143Z,34.31
2024-02-16T06:34:10.951Z,32.94
2024-02-16T06:39:18.788Z,33.64
2024-02-16T06:44:31.482Z,32.93
2024-02-16T06:49:34.093Z,33.48
2024-02-16T06:54:36.672Z,31.74
2024-02-16T06:59:39.290Z,32.09
2024-02-16T07:04:42.404Z,31.16
2024-02-16T07:09:46.515Z,29.49
2024-02-16T07:14:51.700Z,29.92
2024-02-16T07:19:54.416Z,29.17
2024-02-16T07:24:56.979Z,29.92
2024-02-16T07:29:59.528Z,29.52
2024-02-16T07:35:02.146Z,28.86
2024-02-16T07:40:07.683Z,29.87
2024-02-16T07:45:12.724Z,29.43
2024-02-16T07:50:19.761Z,29.69
2024-02-16T07:55:23.712Z,30.06
2024-02-16T08:00:26.997Z,31.11
2024-02-16T08:05:29.788Z,30.28
2024-02-16T08:10:32.463Z,30.53
2024-02-16T08:15:35.077Z,29.37
2024-02-16T08:20:38.021Z,28.43
2024-02-16T08:25:40.486Z,26.77
2024-02-16T08:30:45.611Z,28.68
2024-02-16T08:35:48.283Z,28.03
2024-02-16T08:40:53.383Z,27.31
2024-02-16T08:45:56.559Z,28.90
2024-02-16T08:50:59.184Z,28.64
2024-02-16T08:56:01.779Z,27.51
2024-02-16T09:01:05.256Z,27.75
2024-02-16T09:06:08.316Z,27.93
2024-02-16T09:11:11.011Z,26.87
2024-02-16T09:16:13.570Z,27.98
2024-02-16T09:21:16.322Z,27.13
2024-02-16T09:26:18.990Z,26.51
2024-02-16T09:31:22.583Z,27.07
2024-02-16T09:36:25.257Z,27.34
2024-02-16T09:41:30.097Z,26.89
2024-02-16T09:46:36.455Z,26.69
2024-02-16T09:51:39.542Z,27.31
2024-02-16T09:56:47.052Z,26.83
2024-02-16T10:01:49.840Z,27.51
2024-02-16T10:06:52.977Z,26.57
2024-02-16T10:11:55.553Z,27.29
2024-02-16T10:17:08.806Z,28.20
2024-02-16T10:22:13.053Z,27.86
2024-02-16T10:27:20.180Z,29.36
2024-02-16T10:32:24.688Z,28.32
2024-02-16T10:37:27.579Z,27.98
2024-02-16T10:42:32.496Z,28.57
2024-02-16T10:47:34.995Z,28.44
2024-02-16T10:52:40.569Z,28.48
2024-02-16T10:57:43.098Z,29.14
2024-02-16T11:03:00.754Z,28.80
2024-02-16T11:08:04.964Z,29.70
2024-02-16T11:13:09.486Z,30.83
2024-02-16T11:18:12.838Z,30.07
2024-02-16T11:23:18.731Z,30.60
2024-02-16T11:28:21.835Z,30.18
2024-02-16T11:33:24.562Z,29.51
2024-02-16T11:38:28.064Z,29.94
2024-02-16T11:43:31.588Z,31.37
2024-02-16T11:48:34.343Z,31.00
2024-02-16T11:53:37.357Z,32.17
2024-02-16T11:58:40.091Z,33.03
2024-02-16T12:03:46.407Z,33.27
2024-02-16T12:08:51.460Z,33.41
2024-02-16T12:13:54.839Z,32.54
2024-02-16T12:19:07.119Z,33.39
2024-02-16T12:24:12.111Z,34.45
2024-02-16T12:29:16.706Z,34.85
2024-02-16T12:34:19.972Z,35.85
2024-02-16T12:39:23.761Z,35.84
2024-02-16T12:44:26.454Z,35.96
2024-02-16T12:49:29.461Z,36.28
2024-02-16T12:54:33.212Z,37.77
2024-02-16T12:59:36.840Z,38.71
2024-02-16T13:04:39.876Z,39.06
2024-02-16T13:09:43.984Z,39.02
2024-02-16T13:14:48.184Z,39.49
2024-02-16T13:19:51.592Z,40.15
2024-02-16T13:24:54.905Z,40.65
2024-02-16T13:29:57.822Z,41.52
2024-02-16T13:35:00.938Z,41.15
2024-02-16T13:40:08.302Z,42.30
2024-02-16T13:45:11.550Z,43.08
2024-02-16T13:50:14.937Z,44.31
2024-02-16T13:55:17.727Z,44.79
2024-02-16T14:00:20.879Z,45.66
2024-02-16T14:05:26.890Z,45.52
2024-02-16T14:10:30.392Z,45.58
2024-02-16T14:15:35.249Z,46.92
2024-02-16T14:20:38.543Z,46.82
2024-02-16T14:25:44.350Z,47.25
2024-02-16T14:30:47.884Z,47.63
2024-02-16T14:35:51.914Z,47.70
2024-02-16T14:40:55.343Z,48.38
2024-02-16T14:46:01.432Z,49.15
2024-02-16T14:51:06.164Z,48.70
2024-02-16T14:56:11.202Z,48.71
2024-02-16T15:01:14.741Z,48.98
2024-02-16T15:06:17.683Z,49.27
2024-02-16T15:11:20.877Z,49.88
2024-02-16T15:16:23.977Z,49.83
2024-02-16T15:21:30.681Z,50.25
2024-02-16T15:26:33.473Z,50.32
2024-02-16T15:31:36.195Z,50.13
2024-02-16T15:36:39.480Z,50.56
2024-02-16T15:41:42.474Z,50.49
2024-02-16T15:46:45.916Z,51.00
2024-02-16T15:51:49.071Z,50.85
2024-02-16T15:56:56.282Z,51.12
2024-02-16T16:02:01.591Z,50.82
2024-02-16T16:07:05.280Z,50.70
2024-02-16T16:12:09.784Z,50.79
2024-02-16T16:17:13.070Z,50.98
2024-02-16T16:22:16.035Z,51.23
2024-02-16T16:27:18.676Z,51.07
2024-02-16T16:32:21.682Z,51.35
2024-02-16T16:37:25.175Z,50.55
2024-02-16T16:42:29.743Z,51.46
2024-02-16T16:47:49.942Z,51.21
2024-02-16T16:52:52.782Z,51.44
2024-02-16T16:57:56.184Z,51.71
2024-02-16T17:03:01.188Z,51.43
2024-02-16T17:08:04.263Z,51.78
2024-02-16T17:13:07.007Z,51.48
2024-02-16T17:18:11.436Z,51.34
2024-02-16T17:23:15.193Z,51.71
2024-02-16T17:28:18.122Z,51.03
2024-02-16T17:33:21.437Z,51.26
2024-02-16T17:38:24.984Z,51.31
2024-02-16T17:43:27.613Z,50.54
2024-02-16T17:48:32.122Z,50.56
2024-02-16T17:53:34.819Z,50.23
2024-02-16T17:58:38.017Z,50.25
2024-02-16T18:03:41.024Z,50.18
2024-02-16T18:08:44.183Z,50.17
2024-02-16T18:13:46.699Z,49.89
2024-02-16T18:18:49.529Z,50.13
2024-02-16T18:23:52.885Z,49.83
2024-02-16T18:28:55.476Z,50.36
2024-02-16T18:33:58.324Z,49.97
2024-02-16T18:39:02.684Z,50.11
2024-02-16T18:44:05.388Z,50.27
2024-02-16T18:49:08.780Z,50.16
2024-02-16T18:54:12.498Z,49.94
2024-02-16T18:59:15.123Z,49.74
2024-02-16T19:04:17.984Z,50.64
2024-02-16T19:09:20.646Z,49.98
2024-02-16T19:14:27.367Z,50.11
2024-02-16T19:19:31.900Z,49.98
2024-02-16T19:24:39.949Z,50.23
2024-02-16T19:29:47.120Z,50.34
2024-02-16T19:34:49.631Z,49.81
2024-02-16T19:39:52.418Z,49.89
2024-02-16T19:44:55.456Z,49.83
2024-02-16T19:49:58.028Z,49.80
2024-02-16T19:55:02.731Z,50.29
2024-02-16T20:00:06.218Z,50.04
2024-02-16T20:05:09.493Z,49.88
2024-02-16T20:10:12.267Z,50.46
2024-02-16T20:15:14.803Z,50.29
2024-02-16T20:20:17.352Z,50.67
2024-02-16T20:25:23.165Z,51.33
2024-02-16T20:30:26.742Z,50.85
2024-02-16T20:35:29.582Z,50.63
2024-02-16T20:40:32.289Z,50.38
2024-02-16T20:45:35.037Z,50.83
2024-02-16T20:50:37.649Z,51.00
2024-02-16T20:55:40.111Z,51.37
2024-02-16T21:00:43.741Z,51.87
2024-02-16T21:05:46.749Z,51.90
2024-02-16T21:10:49.306Z,52.22
2024-02-16T21:15:51.899Z,52.55
2024-02-16T21:20:55.305Z,52.41
2024-02-16T21:25:57.810Z,52.18
2024-02-16T21:31:00.315Z,52.90
2024-02-16T21:36:07.584Z,52.48
2024-02-16T21:41:14.483Z,52.59
2024-02-16T21:46:37.020Z,52.39
2024-02-16T21:51:39.944Z,52.74
2024-02-16T21:56:42.542Z,53.14
2024-02-16T22:01:45.131Z,52.94
2024-02-16T22:06:49.536Z,53.18
2024-02-16T22:11:52.195Z,52.98
2024-02-16T22:16:55.741Z,53.20
2024-02-16T22:21:58.623Z,52.97
2024-02-16T22:27:01.480Z,53.22
2024-02-16T22:32:11.964Z,52.41
2024-02-16T22:37:20.201Z,52.95
2024-02-16T22:42:24.368Z,52.84
2024-02-16T22:47:26.948Z,52.61
2024-02-16T22:52:29.545Z,53.23
2024-02-16T22:57:32.315Z,53.48
2024-02-16T23:02:34.854Z,54.02
2024-02-16T23:07:37.655Z,53.48
2024-02-16T23:12:47.213Z,53.67
2024-02-16T23:17:49.882Z,53.75
2024-02-16T23:23:03.437Z,54.21
2024-02-16T23:28:06.696Z,54.41
2024-02-16T23:33:13.189Z,54.93
2024-02-16T23:38:16.005Z,54.61
2024-02-16T23:43:18.578Z,55.24
2024-02-16T23:48:21.192Z,55.07
2024-02-16T23:53:24.113Z,55.43
2024-02-16T23:58:29.125Z,54.92
